Terminal Aerodrome Forecast
Issued by NWS North Platte, NE

Home | Current Version | Previous Version | Graphics & Text | Print | Product List | Glossary On
Versions: 1 2 3 4 5 6 7 8 9 10 11 12 13 14 15 16 17 18 19 20 21 22
000
FTUS43 KLBF 231720
TAFVTN
TAF
KVTN 231720Z 2318/2418 19012KT P6SM OVC015
     FM232100 19010KT P6SM FEW040 SCT200
     FM240000 01012G19KT P6SM VCTS BKN120CB
     FM240400 36017G24KT 5SM -SHRA OVC015
     FM240600 36017G24KT 3SM -SHRA OVC008
     FM241200 36017G26KT 2SM SHRA OVC008
     FM241700 01018G28KT 2SM SHRA OVC003=

USA.gov is the U.S. government's official web portal to all federal, state and local government web resources and services.